Time;durP1;ratioP1;P1;durP2;ratioP2;P2;SDS_P1;SDS_P2;PMS_P1;PMS_P2;Temp;Humidity;BMP_temperature;BMP_pressure;BME280_temperature;BME280_humidity;BME280_pressure;Samples;Min_cycle;Max_cycle;Signal;HPM_P1;HPM_P2
2023/08/11 00:03:01;;;;;;;8.70;4.80;;;;;;;15.81;66.85;99576.28;223054;184;137859;-61
2023/08/11 00:08:06;;;;;;;10.80;5.10;;;;;;;15.78;67.03;99571.91;223019;183;145710;-61
2023/08/11 00:13:12;;;;;;;14.40;5.40;;;;;;;15.77;67.24;99568.77;222956;184;138731;-61
2023/08/11 00:18:16;;;;;;;11.50;4.90;;;;;;;15.79;67.34;99571.31;223152;184;137308;-61
2023/08/11 00:23:19;;;;;;;9.20;4.90;;;;;;;15.81;67.47;99571.51;223109;184;145497;-61
2023/08/11 00:28:22;;;;;;;12.10;5.30;;;;;;;15.78;67.46;99570.16;223221;184;138652;-61
2023/08/11 00:33:26;;;;;;;10.10;5.70;;;;;;;15.74;67.62;99571.11;223219;184;137009;-61
2023/08/11 00:38:38;;;;;;;11.30;5.40;;;;;;;15.66;67.82;99571.23;223090;184;145887;-61
2023/08/11 00:43:48;;;;;;;11.20;5.00;;;;;;;15.59;68.02;99577.22;223121;185;139717;-61
2023/08/11 00:48:51;;;;;;;7.80;4.20;;;;;;;15.58;68.04;99576.23;223141;184;137382;-62
2023/08/11 00:53:56;;;;;;;7.80;4.30;;;;;;;15.57;67.90;99580.94;223091;184;145875;-61
2023/08/11 00:59:00;;;;;;;7.70;4.60;;;;;;;15.54;67.69;99582.27;223148;184;139442;-61
2023/08/11 01:04:04;;;;;;;7.30;4.20;;;;;;;15.52;67.62;99577.20;223211;184;136900;-63
2023/08/11 01:09:19;;;;;;;10.80;4.90;;;;;;;15.47;67.42;99573.66;223204;184;145937;-62
2023/08/11 01:14:56;;;;;;;6.20;4.20;;;;;;;15.40;67.41;99569.51;223034;184;139628;-61
2023/08/11 01:20:00;;;;;;;12.50;4.60;;;;;;;15.30;67.47;99567.75;223109;184;137983;-64
2023/08/11 01:25:10;;;;;;;9.00;4.30;;;;;;;15.23;67.71;99570.98;223344;183;147630;-61
2023/08/11 01:30:17;;;;;;;13.20;4.90;;;;;;;15.17;67.86;99569.42;223364;183;140371;-63
2023/08/11 01:35:21;;;;;;;6.00;4.30;;;;;;;15.11;67.98;99573.96;223370;183;137982;-64
2023/08/11 01:40:43;;;;;;;9.60;5.00;;;;;;;15.01;68.22;99577.54;223438;182;145990;-62
2023/08/11 01:45:48;;;;;;;10.80;4.90;;;;;;;14.92;68.59;99575.11;223344;182;138903;-63
2023/08/11 01:50:52;;;;;;;8.70;5.20;;;;;;;14.90;68.97;99576.84;223391;183;137692;-64
2023/08/11 01:55:55;;;;;;;10.10;5.50;;;;;;;14.92;69.27;99572.13;223442;182;145817;-64
2023/08/11 02:00:59;;;;;;;9.00;5.60;;;;;;;14.93;69.31;99573.63;223357;182;140458;-65
2023/08/11 02:06:02;;;;;;;9.30;5.70;;;;;;;14.92;69.31;99570.34;223323;182;137262;-65
2023/08/11 02:11:05;;;;;;;12.00;6.20;;;;;;;14.86;69.33;99568.77;223411;182;145389;-67
2023/08/11 02:16:09;;;;;;;9.60;6.10;;;;;;;14.79;69.34;99571.62;223355;182;139409;-68
2023/08/11 02:21:12;;;;;;;11.20;6.10;;;;;;;14.77;69.52;99572.60;223414;182;136528;-67
2023/08/11 02:26:15;;;;;;;10.00;5.00;;;;;;;14.73;69.40;99573.80;223383;182;147774;-64
2023/08/11 02:31:18;;;;;;;9.60;5.20;;;;;;;14.69;69.29;99573.94;223262;182;139145;-63
2023/08/11 02:36:23;;;;;;;14.00;5.30;;;;;;;14.67;69.24;99576.36;223313;182;137730;-63
2023/08/11 02:41:26;;;;;;;14.80;5.70;;;;;;;14.64;69.25;99574.48;223393;182;146554;-61
2023/08/11 02:46:29;;;;;;;9.40;6.10;;;;;;;14.63;69.27;99580.23;223405;182;139378;-61
2023/08/11 02:51:38;;;;;;;12.20;5.50;;;;;;;14.63;69.30;99582.91;223432;183;137474;-63
2023/08/11 02:56:52;;;;;;;12.30;5.10;;;;;;;14.59;69.22;99578.56;223308;182;145917;-63
2023/08/11 03:01:55;;;;;;;9.50;4.90;;;;;;;14.51;69.24;99586.04;223425;182;139491;-63
2023/08/11 03:06:58;;;;;;;9.90;5.70;;;;;;;14.43;69.40;99591.21;223350;183;136420;-61
2023/08/11 03:12:02;;;;;;;13.10;5.00;;;;;;;14.37;69.58;99592.71;223335;182;147732;-63
2023/08/11 03:17:05;;;;;;;13.00;5.40;;;;;;;14.34;69.68;99603.99;223264;182;138993;-61
2023/08/11 03:22:10;;;;;;;13.80;5.80;;;;;;;14.37;69.58;99604.54;223224;182;138253;-61
2023/08/11 03:27:14;;;;;;;14.00;6.00;;;;;;;14.36;69.59;99601.31;223332;182;146704;-60
2023/08/11 03:32:18;;;;;;;11.20;5.90;;;;;;;14.34;69.58;99597.55;223459;182;138579;-62
2023/08/11 03:37:22;;;;;;;10.30;5.80;;;;;;;14.31;69.46;99602.41;223290;182;137657;-60
2023/08/11 03:42:26;;;;;;;11.30;5.40;;;;;;;14.28;69.63;99603.89;223390;182;146445;-60
2023/08/11 03:47:30;;;;;;;14.70;5.90;;;;;;;14.24;69.58;99608.45;223488;182;139920;-60
2023/08/11 03:52:34;;;;;;;10.20;6.00;;;;;;;14.18;69.73;99609.02;223449;182;137139;-65
2023/08/11 03:57:38;;;;;;;15.20;6.40;;;;;;;14.15;70.05;99607.75;223549;182;145765;-66
2023/08/11 04:02:44;;;;;;;182.30;142.80;;;;;;;14.20;70.25;99615.86;223258;183;139655;-64
2023/08/11 04:07:50;;;;;;;23.60;15.30;;;;;;;14.32;70.47;99618.91;223429;182;138771;-61
2023/08/11 04:12:53;;;;;;;47.40;33.70;;;;;;;14.39;70.04;99618.48;223337;182;147182;-60
2023/08/11 04:17:59;;;;;;;;;;;;;;;14.41;69.91;99618.84;223416;182;140253;-61
2023/08/11 04:23:03;;;;;;;10.20;7.20;;;;;;;14.43;69.62;99617.27;223561;182;130930;-60
2023/08/11 04:28:07;;;;;;;13.50;7.30;;;;;;;14.43;69.67;99622.30;223336;182;146435;-60
2023/08/11 04:33:12;;;;;;;14.90;6.60;;;;;;;14.47;69.69;99620.44;223335;183;138936;-62
2023/08/11 04:38:16;;;;;;;11.80;6.50;;;;;;;14.52;69.55;99628.15;223470;182;139567;-61
2023/08/11 04:43:19;;;;;;;10.40;6.00;;;;;;;14.54;69.31;99632.27;223389;183;145621;-62
2023/08/11 04:48:24;;;;;;;36.50;24.40;;;;;;;14.54;69.21;99636.91;223308;182;140428;-61
2023/08/11 04:53:28;;;;;;;18.10;7.60;;;;;;;14.59;69.13;99640.73;223394;183;138530;-60
2023/08/11 04:58:36;;;;;;;17.10;7.60;;;;;;;14.89;70.05;99644.30;223304;182;147401;-60
2023/08/11 05:03:40;;;;;;;14.30;7.40;;;;;;;15.42;69.21;99647.34;223355;182;140262;-60
2023/08/11 05:08:45;;;;;;;12.10;7.30;;;;;;;15.59;67.38;99644.66;223341;183;137543;-60
2023/08/11 05:13:48;;;;;;;15.40;7.00;;;;;;;15.68;67.26;99649.24;223386;182;145449;-59
2023/08/11 05:18:51;;;;;;;14.80;7.60;;;;;;;15.83;66.68;99653.52;223361;182;138975;-61
2023/08/11 05:23:54;;;;;;;15.30;6.90;;;;;;;15.68;66.17;99656.35;223282;183;138286;-61
2023/08/11 05:28:58;;;;;;;11.70;7.20;;;;;;;15.54;66.47;99655.38;223399;182;145639;-61
2023/08/11 05:34:02;;;;;;;13.60;7.60;;;;;;;15.52;66.95;99654.11;223406;183;139546;-62
2023/08/11 05:39:06;;;;;;;13.00;7.50;;;;;;;15.54;67.12;99654.14;223349;182;140042;-63
2023/08/11 05:44:09;;;;;;;12.60;7.40;;;;;;;15.62;67.46;99654.31;223434;182;145475;-67
2023/08/11 05:49:13;;;;;;;14.80;8.20;;;;;;;15.71;67.42;99654.04;223348;182;139065;-68
2023/08/11 05:54:16;;;;;;;15.90;7.90;;;;;;;15.85;67.12;99656.21;223442;182;137162;-61
2023/08/11 05:59:21;;;;;;;13.20;7.70;;;;;;;15.99;66.72;99656.55;223393;182;147636;-61
2023/08/11 06:04:24;;;;;;;;;;;;;;;16.11;66.42;99653.91;223318;182;138997;-61
2023/08/11 06:09:28;;;;;;;12.90;6.90;;;;;;;16.18;66.16;99659.64;223475;182;131529;-60
2023/08/11 06:14:31;;;;;;;11.50;7.00;;;;;;;16.26;66.06;99657.59;223348;183;148207;-60
2023/08/11 06:19:34;;;;;;;12.50;7.00;;;;;;;16.36;65.73;99653.98;223348;182;139453;-60
2023/08/11 06:24:38;;;;;;;9.10;6.80;;;;;;;16.46;65.57;99656.12;223434;182;138300;-61
2023/08/11 06:29:41;;;;;;;10.50;6.70;;;;;;;16.55;65.01;99657.91;223458;182;148701;-60
2023/08/11 06:34:45;;;;;;;12.00;6.70;;;;;;;16.66;64.90;99660.66;223507;182;139168;-60
2023/08/11 06:39:48;;;;;;;9.20;6.40;;;;;;;16.81;64.40;99658.80;223478;182;137236;-61
2023/08/11 06:44:51;;;;;;;9.20;6.30;;;;;;;16.91;63.39;99662.12;223493;182;147671;-60
2023/08/11 06:49:55;;;;;;;12.60;6.40;;;;;;;16.96;62.96;99667.85;223512;182;139330;-60
2023/08/11 06:54:58;;;;;;;10.00;6.20;;;;;;;17.03;62.53;99668.37;223406;182;139082;-60
2023/08/11 07:00:04;;;;;;;9.90;5.70;;;;;;;17.15;62.43;99675.52;223538;182;148029;-60
2023/08/11 07:05:08;;;;;;;11.30;6.40;;;;;;;17.25;62.30;99674.13;223365;182;139725;-60
2023/08/11 07:10:11;;;;;;;9.90;6.10;;;;;;;17.36;62.00;99673.08;223347;181;143355;-59
2023/08/11 07:15:15;;;;;;;11.10;6.20;;;;;;;17.50;62.04;99667.69;223405;182;148492;-62
2023/08/11 07:20:18;;;;;;;42.50;34.60;;;;;;;17.65;61.89;99667.72;223219;182;139101;-60
2023/08/11 07:25:22;;;;;;;15.90;7.70;;;;;;;17.87;61.43;99673.32;223354;182;137666;-60
2023/08/11 07:30:25;;;;;;;11.90;7.30;;;;;;;18.05;60.93;99675.37;223402;182;148238;-61
2023/08/11 07:35:30;;;;;;;9.90;6.20;;;;;;;18.25;60.83;99678.65;223362;182;139622;-59
2023/08/11 07:40:33;;;;;;;10.90;6.40;;;;;;;18.39;60.51;99679.02;223378;182;137794;-61
2023/08/11 07:45:36;;;;;;;12.80;5.60;;;;;;;18.54;59.78;99681.04;223460;182;147874;-60
2023/08/11 07:50:40;;;;;;;10.70;5.10;;;;;;;18.68;58.93;99678.01;223339;182;139054;-60
2023/08/11 07:55:43;;;;;;;8.10;4.90;;;;;;;18.84;58.54;99677.52;223280;182;136846;-60
2023/08/11 08:00:46;;;;;;;87.80;73.90;;;;;;;19.03;57.55;99675.05;223342;182;147707;-60
2023/08/11 08:05:49;;;;;;;40.50;30.90;;;;;;;19.18;56.56;99670.06;223387;182;138746;-60
2023/08/11 08:10:53;;;;;;;14.00;5.40;;;;;;;19.35;56.20;99667.38;223381;182;138150;-61
2023/08/11 08:15:56;;;;;;;5.70;3.80;;;;;;;19.53;55.56;99671.70;223432;182;147778;-60
2023/08/11 08:21:00;;;;;;;44.50;31.90;;;;;;;19.66;54.03;99673.09;223306;182;138843;-60
2023/08/11 08:26:03;;;;;;;9.40;5.20;;;;;;;19.79;53.37;99671.73;223362;182;139183;-60
2023/08/11 08:31:06;;;;;;;94.80;69.10;;;;;;;19.93;52.93;99670.52;223364;182;148667;-61
2023/08/11 08:36:09;;;;;;;21.20;15.20;;;;;;;20.10;52.46;99671.98;223359;182;140156;-61
2023/08/11 08:41:16;;;;;;;7.40;4.80;;;;;;;20.24;52.13;99672.16;223360;181;137275;-63
2023/08/11 08:46:20;;;;;;;8.80;4.00;;;;;;;20.36;51.70;99668.84;223180;182;148230;-61
2023/08/11 08:51:24;;;;;;;8.30;4.20;;;;;;;20.46;51.16;99669.36;223446;181;139252;-61
2023/08/11 08:56:28;;;;;;;6.20;4.20;;;;;;;20.56;50.92;99665.55;223400;182;137602;-61
2023/08/11 09:01:32;;;;;;;9.40;3.70;;;;;;;20.69;50.73;99661.70;223397;182;148194;-61
2023/08/11 09:06:35;;;;;;;10.00;4.00;;;;;;;20.82;50.08;99666.77;223324;182;139691;-61
2023/08/11 09:11:39;;;;;;;6.20;3.40;;;;;;;20.92;49.67;99662.94;223074;182;137729;-60
2023/08/11 09:16:43;;;;;;;46.20;34.00;;;;;;;21.07;49.11;99661.71;223270;182;149498;-60
2023/08/11 09:21:47;;;;;;;5.80;2.60;;;;;;;21.23;45.66;99666.84;223342;182;139072;-59
2023/08/11 09:26:50;;;;;;;9.30;3.40;;;;;;;21.37;44.78;99660.95;223250;182;137023;-60
2023/08/11 09:31:54;;;;;;;3.70;2.60;;;;;;;21.51;44.29;99662.88;223191;183;148586;-61
2023/08/11 09:36:58;;;;;;;153.60;126.00;;;;;;;21.59;44.85;99664.23;223225;182;139382;-61
2023/08/11 09:42:03;;;;;;;21.90;17.00;;;;;;;21.76;44.38;99654.25;223040;181;138797;-60
2023/08/11 09:47:09;;;;;;;7.40;3.40;;;;;;;21.97;43.65;99655.62;223123;182;148679;-60
2023/08/11 09:52:24;;;;;;;5.30;2.50;;;;;;;22.11;42.55;99657.30;223135;182;139393;-61
2023/08/11 09:57:28;;;;;;;4.50;2.10;;;;;;;22.23;41.68;99651.19;223269;182;137188;-60
2023/08/11 10:02:33;;;;;;;4.00;1.90;;;;;;;22.43;41.24;99650.65;223515;182;147614;-60
2023/08/11 10:07:41;;;;;;;5.10;2.50;;;;;;;22.58;41.73;99644.91;223384;182;139098;-60
2023/08/11 10:12:58;;;;;;;67.40;52.20;;;;;;;22.81;41.00;99643.23;223273;182;136586;-61
2023/08/11 10:18:02;;;;;;;6.30;2.90;;;;;;;23.04;40.45;99638.55;223434;182;147812;-60
2023/08/11 10:27:07;;;;;;;6.70;2.60;;;;;;;23.53;40.10;99635.89;221796;192;666503;-61
2023/08/11 10:32:11;;;;;;;9.10;2.50;;;;;;;23.76;39.97;99634.98;223368;184;138663;-61
2023/08/11 10:37:23;;;;;;;7.30;2.80;;;;;;;23.64;39.70;99641.30;223184;184;144822;-60
2023/08/11 10:42:27;;;;;;;6.70;2.50;;;;;;;23.55;39.87;99640.78;223184;184;139050;-62
2023/08/11 10:47:31;;;;;;;6.40;2.30;;;;;;;23.80;39.94;99633.94;223285;184;137177;-62
2023/08/11 10:52:34;;;;;;;31.00;25.30;;;;;;;24.10;39.45;99631.41;223219;184;146146;-63
2023/08/11 10:57:39;;;;;;;5.80;3.80;;;;;;;24.34;36.98;99629.48;223146;184;140204;-62
2023/08/11 11:02:42;;;;;;;12.60;9.80;;;;;;;24.60;37.15;99626.89;223322;184;137724;-61
2023/08/11 11:07:50;;;;;;;3.70;2.40;;;;;;;24.84;36.70;99618.36;223225;184;143874;-61
2023/08/11 11:12:53;;;;;;;3.60;1.90;;;;;;;25.02;35.25;99621.21;223357;184;139529;-60
2023/08/11 11:17:58;;;;;;;2.30;1.80;;;;;;;25.13;34.22;99619.86;223067;184;137108;-61
2023/08/11 11:27:07;;;;;;;3.30;2.10;;;;;;;25.26;34.25;99610.44;221807;192;666921;-61
2023/08/11 11:32:11;;;;;;;4.80;1.90;;;;;;;24.94;35.30;99605.23;223185;183;136618;-60
2023/08/11 11:37:15;;;;;;;8.60;2.80;;;;;;;24.96;35.19;99605.22;223153;184;146893;-60
2023/08/11 11:42:18;;;;;;;6.30;3.70;;;;;;;25.07;34.93;99595.61;223082;184;141049;-60
2023/08/11 11:47:22;;;;;;;3.90;1.90;;;;;;;24.59;35.11;99595.41;223404;181;136888;-61
2023/08/11 11:52:25;;;;;;;6.00;2.70;;;;;;;24.43;35.49;99605.88;223419;181;144506;-61
2023/08/11 11:57:29;;;;;;;4.30;1.80;;;;;;;24.35;35.74;99610.23;223449;181;141327;-61
2023/08/11 12:02:33;;;;;;;3.00;1.60;;;;;;;24.20;35.31;99607.11;223296;181;137763;-62
2023/08/11 12:07:37;;;;;;;8.30;5.30;;;;;;;24.41;36.80;99603.74;223305;181;144169;-63
2023/08/11 12:12:40;;;;;;;4.90;1.90;;;;;;;24.95;35.42;99601.38;223284;181;138875;-62
2023/08/11 12:17:47;;;;;;;5.20;2.00;;;;;;;25.53;33.38;99600.89;223444;181;138862;-59
2023/08/11 12:22:55;;;;;;;156.40;126.20;;;;;;;25.70;32.72;99601.77;223315;182;146375;-61
2023/08/11 12:28:02;;;;;;;15.20;13.20;;;;;;;25.73;33.69;99600.71;223329;181;139244;-60
2023/08/11 12:33:05;;;;;;;3.00;2.00;;;;;;;26.02;34.17;99598.30;223397;182;137060;-60
2023/08/11 12:38:12;;;;;;;4.20;2.50;;;;;;;26.37;32.71;99595.03;223353;181;146420;-60
2023/08/11 12:43:16;;;;;;;4.30;2.00;;;;;;;26.74;33.38;99591.11;223217;182;139012;-60
2023/08/11 12:48:19;;;;;;;4.90;2.20;;;;;;;27.04;31.36;99590.36;223340;182;137861;-60
2023/08/11 12:53:22;;;;;;;3.50;1.70;;;;;;;27.27;30.58;99594.48;223371;182;146380;-59
2023/08/11 12:58:26;;;;;;;35.40;26.10;;;;;;;27.48;30.27;99592.95;223179;181;139781;-63
2023/08/11 13:03:29;;;;;;;7.30;4.60;;;;;;;27.72;30.37;99594.39;223393;183;140447;-62
2023/08/11 13:08:32;;;;;;;2.90;2.10;;;;;;;27.90;29.76;99596.03;223456;181;145860;-65
2023/08/11 13:13:36;;;;;;;26.60;21.40;;;;;;;27.53;29.32;99592.92;223093;181;139262;-63
2023/08/11 13:18:39;;;;;;;23.90;6.30;;;;;;;27.01;30.07;99593.15;223316;182;137259;-63
2023/08/11 13:23:42;;;;;;;5.70;3.10;;;;;;;26.36;31.52;99589.11;223410;182;148244;-60
2023/08/11 13:28:45;;;;;;;407.80;330.10;;;;;;;25.87;32.43;99588.36;223311;182;140016;-62
2023/08/11 13:34:04;;;;;;;18.00;14.40;;;;;;;25.62;32.33;99584.20;221644;181;2247050;-64
2023/08/11 13:39:08;;;;;;;5.30;2.60;;;;;;;25.36;31.41;99587.00;223461;181;137563;-60
2023/08/11 13:44:11;;;;;;;10.80;6.20;;;;;;;25.21;32.05;99587.95;223248;181;140208;-61
2023/08/11 13:49:14;;;;;;;3.60;2.20;;;;;;;25.37;33.65;99581.86;223349;182;137418;-62
2023/08/11 13:54:18;;;;;;;5.50;2.10;;;;;;;25.55;31.98;99578.88;223356;181;145906;-60
2023/08/11 13:59:21;;;;;;;3.20;2.50;;;;;;;25.74;32.50;99571.73;223391;181;139433;-61
2023/08/11 14:04:24;;;;;;;5.70;2.80;;;;;;;26.05;33.80;99568.20;223379;182;136596;-60
2023/08/11 14:09:28;;;;;;;22.40;19.90;;;;;;;26.20;32.11;99564.84;223438;182;145608;-60
2023/08/11 14:14:32;;;;;;;10.20;7.80;;;;;;;26.35;33.12;99562.70;223359;182;140081;-60
2023/08/11 14:19:35;;;;;;;9.50;7.10;;;;;;;26.45;31.09;99564.02;223165;182;137499;-61
2023/08/11 14:24:38;;;;;;;9.80;5.80;;;;;;;26.53;31.22;99568.00;223299;182;145484;-61
2023/08/11 14:29:41;;;;;;;4.30;2.70;;;;;;;26.56;31.36;99571.10;223250;182;139482;-60
2023/08/11 14:34:45;;;;;;;6.40;2.40;;;;;;;26.70;31.94;99570.49;223331;182;138071;-60
2023/08/11 14:39:48;;;;;;;75.70;67.90;;;;;;;26.78;30.42;99568.05;223356;181;146349;-60
2023/08/11 14:44:51;;;;;;;3.60;2.90;;;;;;;26.80;29.84;99567.70;223300;182;139544;-60
2023/08/11 14:49:54;;;;;;;2.80;2.10;;;;;;;26.69;29.38;99566.27;223339;182;136757;-61
2023/08/11 14:54:57;;;;;;;3.40;2.60;;;;;;;26.55;29.57;99562.83;223294;182;145738;-60
2023/08/11 15:00:00;;;;;;;7.30;2.40;;;;;;;26.38;30.41;99560.73;223292;181;142004;-57
2023/08/11 15:05:04;;;;;;;4.90;2.00;;;;;;;26.22;30.65;99563.16;223211;182;137216;-59
2023/08/11 15:10:08;;;;;;;4.50;1.90;;;;;;;26.04;30.46;99562.38;223389;181;146700;-61
2023/08/11 15:15:11;;;;;;;4.20;2.40;;;;;;;25.88;31.20;99558.63;223344;182;139607;-62
2023/08/11 15:20:15;;;;;;;3.70;2.00;;;;;;;25.77;31.10;99553.95;223281;182;137860;-61
2023/08/11 15:25:18;;;;;;;3.90;1.80;;;;;;;25.60;30.94;99557.14;223235;181;145805;-63
2023/08/11 15:30:22;;;;;;;116.00;98.20;;;;;;;25.42;31.24;99554.17;223109;182;140110;-62
2023/08/11 15:35:26;;;;;;;8.00;6.70;;;;;;;25.26;31.42;99554.42;223343;182;137269;-59
2023/08/11 15:40:29;;;;;;;36.90;28.20;;;;;;;25.19;32.23;99554.89;223382;182;146034;-58
2023/08/11 15:45:32;;;;;;;9.20;4.80;;;;;;;25.12;33.44;99555.15;223455;182;139035;-59
2023/08/11 15:50:35;;;;;;;3.20;2.40;;;;;;;25.01;32.88;99561.98;223341;182;137413;-59
2023/08/11 15:55:39;;;;;;;3.90;2.00;;;;;;;24.92;32.92;99553.23;223343;182;146021;-59
2023/08/11 16:00:42;;;;;;;6.60;2.30;;;;;;;24.83;33.12;99556.99;223416;181;138641;-59
2023/08/11 16:05:47;;;;;;;8.00;2.20;;;;;;;24.74;33.14;99562.09;223368;181;137904;-61
2023/08/11 16:11:03;;;;;;;22.20;16.90;;;;;;;24.61;33.48;99563.41;223420;182;146957;-63
2023/08/11 16:16:08;;;;;;;12.20;9.10;;;;;;;24.54;33.80;99562.19;223304;182;141313;-62
2023/08/11 16:21:18;;;;;;;;;;;;;;;24.52;34.21;99560.45;223394;181;138480;-63
2023/08/11 16:26:41;;;;;;;4.80;2.20;;;;;;;24.48;34.11;99563.59;223321;182;145981;-62
2023/08/11 16:31:46;;;;;;;3.50;1.90;;;;;;;24.45;34.48;99558.94;223336;182;139144;-61
2023/08/11 16:36:51;;;;;;;5.90;2.10;;;;;;;24.43;34.60;99557.31;223285;182;260299;-61
2023/08/11 16:41:57;;;;;;;8.40;2.50;;;;;;;24.42;35.07;99565.77;223129;182;146612;-60
2023/08/11 16:47:03;;;;;;;2.50;1.80;;;;;;;24.36;34.57;99561.86;223281;181;140714;-60
2023/08/11 16:52:08;;;;;;;5.70;2.40;;;;;;;24.31;34.72;99562.95;223484;182;136395;-61
2023/08/11 16:57:12;;;;;;;64.40;57.10;;;;;;;24.26;35.22;99563.23;223435;182;145920;-65
2023/08/11 17:02:16;;;;;;;58.00;46.70;;;;;;;24.23;35.97;99562.85;223333;182;140107;-62
2023/08/11 17:07:19;;;;;;;7.10;4.30;;;;;;;24.22;36.50;99565.77;223347;182;137432;-62
2023/08/11 17:12:23;;;;;;;5.80;3.40;;;;;;;24.17;35.85;99565.55;223405;182;145880;-62
2023/08/11 17:17:26;;;;;;;7.80;3.70;;;;;;;24.12;37.15;99566.73;223408;182;140875;-60
2023/08/11 17:27:10;;;;;;;63.20;55.00;;;;;;;23.95;39.40;99574.02;221842;192;666458;-62
2023/08/11 17:32:13;;;;;;;21.20;12.40;;;;;;;23.79;39.42;99576.44;222994;184;137260;-64
2023/08/11 17:37:16;;;;;;;21.60;12.40;;;;;;;23.64;39.75;99575.55;223131;184;144728;-61
2023/08/11 17:42:19;;;;;;;21.90;12.20;;;;;;;23.46;39.98;99576.55;223106;183;139786;-63
2023/08/11 17:47:22;;;;;;;20.10;10.20;;;;;;;23.28;40.61;99576.29;223054;184;138324;-63
2023/08/11 17:52:25;;;;;;;18.70;10.50;;;;;;;23.11;41.22;99579.91;223164;179;144047;-59
2023/08/11 17:57:29;;;;;;;261.90;216.00;;;;;;;22.96;42.33;99579.29;223189;183;138706;-66
2023/08/11 18:02:32;;;;;;;31.30;18.50;;;;;;;22.84;43.64;99580.51;223016;184;138141;-64
2023/08/11 18:07:36;;;;;;;26.40;13.10;;;;;;;22.72;44.37;99589.63;223198;183;144028;-62
2023/08/11 18:12:39;;;;;;;109.10;93.70;;;;;;;22.56;45.24;99595.02;223131;183;139051;-64
2023/08/11 18:17:42;;;;;;;236.40;189.20;;;;;;;22.45;46.19;99597.82;223083;184;137186;-65
2023/08/11 18:22:50;;;;;;;31.20;16.20;;;;;;;22.31;46.94;99602.44;223093;183;147183;-61
2023/08/11 18:27:54;;;;;;;111.10;88.80;;;;;;;22.20;47.82;99606.11;223031;184;139526;-61
2023/08/11 18:32:57;;;;;;;196.10;152.20;;;;;;;22.13;47.93;99613.71;223016;184;137908;-64
2023/08/11 18:38:01;;;;;;;25.50;11.50;;;;;;;21.96;47.88;99609.64;223260;182;147084;-60
2023/08/11 18:43:04;;;;;;;18.10;8.40;;;;;;;21.83;48.38;99615.75;223290;182;139558;-61
2023/08/11 18:48:08;;;;;;;13.20;7.80;;;;;;;21.67;48.14;99618.13;223270;182;137697;-60
2023/08/11 18:53:11;;;;;;;13.00;6.30;;;;;;;21.48;48.96;99624.83;223365;182;145439;-60
2023/08/11 18:58:14;;;;;;;17.00;7.90;;;;;;;21.31;49.01;99627.56;223277;182;139140;-59
2023/08/11 19:03:18;;;;;;;17.50;8.00;;;;;;;21.17;49.74;99629.80;223334;183;138444;-60
2023/08/11 19:08:22;;;;;;;15.40;8.50;;;;;;;21.02;50.44;99633.06;223371;183;145927;-60
2023/08/11 19:13:25;;;;;;;18.30;8.20;;;;;;;20.88;51.62;99633.89;223298;182;139920;-61
2023/08/11 19:18:29;;;;;;;19.20;9.00;;;;;;;20.74;52.55;99627.84;223294;182;137138;-60
2023/08/11 19:23:32;;;;;;;18.90;8.50;;;;;;;20.61;53.36;99633.43;223303;182;145936;-59
2023/08/11 19:28:35;;;;;;;23.00;9.10;;;;;;;20.49;54.08;99639.59;223415;181;139532;-60
2023/08/11 19:33:39;;;;;;;16.10;8.40;;;;;;;20.38;54.90;99637.30;223485;182;137868;-59
2023/08/11 19:38:43;;;;;;;17.20;8.00;;;;;;;20.31;55.46;99637.92;223340;182;145810;-59
2023/08/11 19:43:46;;;;;;;14.60;6.30;;;;;;;20.26;55.36;99636.24;223281;182;140188;-59
2023/08/11 19:49:01;;;;;;;12.50;5.60;;;;;;;20.21;55.89;99638.58;223269;182;138006;-58
2023/08/11 19:54:05;;;;;;;;;;;;;;;20.12;56.26;99644.95;223324;182;146120;-59
2023/08/11 19:59:08;;;;;;;16.80;5.90;;;;;;;20.02;56.84;99640.46;223295;183;139521;-59
2023/08/11 20:04:12;;;;;;;11.20;5.30;;;;;;;19.97;57.15;99641.87;223327;182;136901;-59
2023/08/11 20:09:15;;;;;;;12.20;5.70;;;;;;;19.90;57.24;99639.23;223296;182;146207;-60
2023/08/11 20:14:19;;;;;;;10.70;6.10;;;;;;;19.80;57.71;99640.16;223335;182;138947;-61
2023/08/11 20:19:23;;;;;;;10.80;5.40;;;;;;;19.69;58.29;99644.04;223411;182;139332;-63
2023/08/11 20:24:27;;;;;;;13.20;6.60;;;;;;;19.62;58.71;99644.64;223412;182;145883;-62
2023/08/11 20:29:30;;;;;;;13.40;6.50;;;;;;;19.55;59.25;99647.97;223388;182;141530;-63
2023/08/11 20:34:34;;;;;;;12.40;6.10;;;;;;;19.48;59.35;99646.80;223341;182;138386;-62
2023/08/11 20:39:37;;;;;;;13.40;6.20;;;;;;;19.42;59.89;99639.56;223405;181;145926;-63
2023/08/11 20:44:40;;;;;;;16.10;6.60;;;;;;;19.40;60.17;99640.86;223336;182;139770;-63
2023/08/11 20:49:44;;;;;;;13.70;6.80;;;;;;;19.37;60.56;99642.52;223401;182;136989;-64
2023/08/11 20:54:48;;;;;;;13.30;6.40;;;;;;;19.33;60.78;99641.41;223257;182;146843;-63
2023/08/11 20:59:51;;;;;;;11.70;6.30;;;;;;;19.31;61.05;99641.39;223259;181;139362;-62
2023/08/11 21:04:54;;;;;;;11.70;6.70;;;;;;;19.28;61.48;99641.17;223314;182;136667;-62
2023/08/11 21:09:58;;;;;;;12.80;6.80;;;;;;;19.22;61.36;99639.60;223433;182;146547;-61
2023/08/11 21:15:02;;;;;;;15.00;6.80;;;;;;;19.15;61.86;99634.55;223281;182;138853;-63
2023/08/11 21:20:07;;;;;;;14.60;6.20;;;;;;;19.12;62.23;99636.45;223352;182;137055;-58
2023/08/11 21:25:10;;;;;;;14.70;6.20;;;;;;;19.11;62.30;99631.85;223367;182;146388;-61
2023/08/11 21:30:14;;;;;;;14.60;6.10;;;;;;;19.09;62.62;99630.09;223345;182;139009;-60
2023/08/11 21:35:18;;;;;;;9.70;6.10;;;;;;;19.08;62.71;99629.09;223502;182;138516;-60
2023/08/11 21:40:22;;;;;;;12.90;6.50;;;;;;;19.05;62.60;99624.81;223235;182;145830;-63
2023/08/11 21:45:25;;;;;;;14.00;5.80;;;;;;;19.01;62.80;99624.17;223568;182;139016;-61
2023/08/11 21:50:28;;;;;;;11.60;5.70;;;;;;;18.95;63.02;99626.12;223568;182;137198;-62
2023/08/11 21:55:32;;;;;;;13.00;6.20;;;;;;;18.90;63.21;99627.74;223402;182;146461;-61
2023/08/11 22:00:40;;;;;;;13.50;5.20;;;;;;;18.90;63.58;99635.70;223512;182;140598;-61
2023/08/11 22:05:44;;;;;;;14.80;5.90;;;;;;;18.94;63.72;99639.48;223367;182;138402;-60
2023/08/11 22:10:47;;;;;;;16.30;6.40;;;;;;;19.02;63.96;99640.08;223369;182;145964;-62
2023/08/11 22:15:51;;;;;;;15.80;6.40;;;;;;;19.07;63.84;99638.71;223489;181;139081;-62
2023/08/11 22:20:54;;;;;;;18.10;6.60;;;;;;;19.08;63.82;99639.88;223482;182;138110;-61
2023/08/11 22:25:57;;;;;;;11.80;6.50;;;;;;;19.06;63.94;99636.29;223397;182;145834;-65
2023/08/11 22:31:01;;;;;;;13.10;6.20;;;;;;;19.01;63.79;99640.66;223319;182;139068;-61
2023/08/11 22:36:04;;;;;;;13.60;5.90;;;;;;;18.96;63.98;99640.04;223493;182;138099;-63
2023/08/11 22:41:08;;;;;;;16.90;6.30;;;;;;;18.89;64.15;99639.89;223391;178;146277;-61
2023/08/11 22:46:11;;;;;;;10.90;6.00;;;;;;;18.82;64.05;99640.89;223574;182;139432;-63
2023/08/11 22:51:15;;;;;;;12.10;6.20;;;;;;;18.73;63.96;99640.92;223466;182;138545;-64
2023/08/11 22:56:18;;;;;;;16.60;6.00;;;;;;;18.63;64.34;99635.98;223482;182;146575;-65
2023/08/11 23:01:22;;;;;;;16.50;6.20;;;;;;;18.55;64.54;99635.48;223451;179;138981;-61
2023/08/11 23:06:25;;;;;;;12.80;6.50;;;;;;;18.47;65.06;99637.23;223530;178;136880;-60
2023/08/11 23:11:28;;;;;;;16.10;5.90;;;;;;;18.41;65.36;99635.76;223459;181;145775;-60
2023/08/11 23:16:32;;;;;;;15.00;5.90;;;;;;;18.40;65.58;99635.85;223413;181;138856;-60
2023/08/11 23:21:36;;;;;;;17.80;5.80;;;;;;;18.43;65.70;99641.84;223474;182;138527;-59
2023/08/11 23:26:42;;;;;;;18.30;6.40;;;;;;;18.46;65.63;99638.73;223458;181;146334;-60
2023/08/11 23:31:46;;;;;;;14.00;6.40;;;;;;;18.45;65.69;99637.00;223397;181;139309;-61
2023/08/11 23:36:49;;;;;;;15.90;6.30;;;;;;;18.43;65.74;99639.00;223425;181;138262;-59